Airport View

Enter AWOS ICAO identifier for current METAR.

ex. KFNL

KPUW 261053Z AUTO 00000KT 10SM CLR 11/08 A2991 RMK AO2 SLP118 T01110083

26 Jun 2019 11:58

Frequency: 135.675

Phone: 509-334-3222

Other Area AWOS: KLWS - KGEG - KSKA - KSFF

TAF KPUW 260540Z 2606/2706 12003KT P6SM VCSH FEW080 SCT100 OVC120 FM261100 VRB04KT P6SM BKN100 FM262200 24010KT P6SM VCTS SCT040CB OVC080 FM270000 24025G39KT P6SM +TSRA SCT020CB OVC050 FM270130 25010KT P6SM VCTS SCT035CB OVC070